sensor_id;sensor_type;location;lat;lon;timestamp;P1;durP1;ratioP1;P2;durP2;ratioP2
72864;SDS011;61000;48.120;11.548;2023-05-07T00:00:47;10.05;;;7.38;;
72864;SDS011;61000;48.120;11.548;2023-05-07T00:03:14;8.30;;;7.38;;
72864;SDS011;61000;48.120;11.548;2023-05-07T00:05:41;9.05;;;7.10;;
72864;SDS011;61000;48.120;11.548;2023-05-07T00:08:08;8.75;;;7.32;;
72864;SDS011;61000;48.120;11.548;2023-05-07T00:10:40;9.57;;;8.50;;
72864;SDS011;61000;48.120;11.548;2023-05-07T00:13:07;10.77;;;6.90;;
72864;SDS011;61000;48.120;11.548;2023-05-07T00:15:34;10.10;;;7.22;;
72864;SDS011;61000;48.120;11.548;2023-05-07T00:18:04;8.25;;;7.35;;
72864;SDS011;61000;48.120;11.548;2023-05-07T00:20:31;10.13;;;7.25;;
72864;SDS011;61000;48.120;11.548;2023-05-07T00:22:58;8.43;;;6.50;;
72864;SDS011;61000;48.120;11.548;2023-05-07T00:25:25;9.90;;;6.60;;
72864;SDS011;61000;48.120;11.548;2023-05-07T00:27:53;12.63;;;7.30;;
72864;SDS011;61000;48.120;11.548;2023-05-07T00:30:20;7.72;;;6.93;;
72864;SDS011;61000;48.120;11.548;2023-05-07T00:32:47;9.18;;;7.18;;
72864;SDS011;61000;48.120;11.548;2023-05-07T00:35:14;13.82;;;7.85;;
72864;SDS011;61000;48.120;11.548;2023-05-07T00:37:41;8.85;;;7.25;;
72864;SDS011;61000;48.120;11.548;2023-05-07T00:40:08;7.38;;;6.60;;
72864;SDS011;61000;48.120;11.548;2023-05-07T00:42:35;10.88;;;7.20;;
72864;SDS011;61000;48.120;11.548;2023-05-07T00:45:04;7.82;;;7.10;;
72864;SDS011;61000;48.120;11.548;2023-05-07T00:47:32;9.68;;;7.35;;
72864;SDS011;61000;48.120;11.548;2023-05-07T00:49:59;8.27;;;6.75;;
72864;SDS011;61000;48.120;11.548;2023-05-07T00:52:27;7.40;;;6.45;;
72864;SDS011;61000;48.120;11.548;2023-05-07T00:54:54;9.65;;;6.80;;
72864;SDS011;61000;48.120;11.548;2023-05-07T00:57:21;9.48;;;7.25;;
72864;SDS011;61000;48.120;11.548;2023-05-07T00:59:50;12.57;;;7.35;;
72864;SDS011;61000;48.120;11.548;2023-05-07T01:02:19;9.25;;;7.45;;
72864;SDS011;61000;48.120;11.548;2023-05-07T01:04:49;9.82;;;7.65;;
72864;SDS011;61000;48.120;11.548;2023-05-07T01:07:15;11.18;;;7.63;;
72864;SDS011;61000;48.120;11.548;2023-05-07T01:09:42;16.85;;;10.40;;
72864;SDS011;61000;48.120;11.548;2023-05-07T01:12:09;31.38;;;16.58;;
72864;SDS011;61000;48.120;11.548;2023-05-07T01:14:37;13.48;;;8.20;;
72864;SDS011;61000;48.120;11.548;2023-05-07T01:17:04;11.98;;;8.15;;
72864;SDS011;61000;48.120;11.548;2023-05-07T01:19:33;11.10;;;8.55;;
72864;SDS011;61000;48.120;11.548;2023-05-07T01:22:01;8.43;;;7.53;;
72864;SDS011;61000;48.120;11.548;2023-05-07T01:24:35;8.55;;;7.53;;
72864;SDS011;61000;48.120;11.548;2023-05-07T01:27:04;11.25;;;7.68;;
72864;SDS011;61000;48.120;11.548;2023-05-07T01:29:32;11.15;;;7.93;;
72864;SDS011;61000;48.120;11.548;2023-05-07T01:32:00;8.05;;;7.10;;
72864;SDS011;61000;48.120;11.548;2023-05-07T01:34:28;9.23;;;7.47;;
72864;SDS011;61000;48.120;11.548;2023-05-07T01:36:59;10.43;;;7.68;;
72864;SDS011;61000;48.120;11.548;2023-05-07T01:39:27;8.23;;;7.20;;
72864;SDS011;61000;48.120;11.548;2023-05-07T01:41:56;10.20;;;7.05;;
72864;SDS011;61000;48.120;11.548;2023-05-07T01:44:25;8.43;;;6.93;;
72864;SDS011;61000;48.120;11.548;2023-05-07T01:46:53;7.47;;;6.60;;
72864;SDS011;61000;48.120;11.548;2023-05-07T01:49:20;10.55;;;7.75;;
72864;SDS011;61000;48.120;11.548;2023-05-07T01:51:47;7.53;;;6.68;;
72864;SDS011;61000;48.120;11.548;2023-05-07T01:54:15;9.77;;;7.97;;
72864;SDS011;61000;48.120;11.548;2023-05-07T01:56:43;8.77;;;7.15;;
72864;SDS011;61000;48.120;11.548;2023-05-07T01:59:11;9.70;;;7.43;;
72864;SDS011;61000;48.120;11.548;2023-05-07T02:01:38;8.95;;;7.35;;
72864;SDS011;61000;48.120;11.548;2023-05-07T02:04:05;10.73;;;7.50;;
72864;SDS011;61000;48.120;11.548;2023-05-07T02:06:32;8.05;;;7.05;;
72864;SDS011;61000;48.120;11.548;2023-05-07T02:09:03;11.30;;;7.47;;
72864;SDS011;61000;48.120;11.548;2023-05-07T02:11:30;7.47;;;6.68;;
72864;SDS011;61000;48.120;11.548;2023-05-07T02:13:57;12.73;;;7.00;;
72864;SDS011;61000;48.120;11.548;2023-05-07T02:16:25;8.05;;;6.45;;
72864;SDS011;61000;48.120;11.548;2023-05-07T02:18:53;9.35;;;6.70;;
72864;SDS011;61000;48.120;11.548;2023-05-07T02:21:20;10.40;;;7.15;;
72864;SDS011;61000;48.120;11.548;2023-05-07T02:23:47;8.93;;;7.72;;
72864;SDS011;61000;48.120;11.548;2023-05-07T02:26:14;8.90;;;6.78;;
72864;SDS011;61000;48.120;11.548;2023-05-07T02:28:40;7.93;;;7.13;;
72864;SDS011;61000;48.120;11.548;2023-05-07T02:31:07;7.68;;;6.82;;
72864;SDS011;61000;48.120;11.548;2023-05-07T02:33:36;7.32;;;6.63;;
72864;SDS011;61000;48.120;11.548;2023-05-07T02:36:06;9.85;;;7.13;;
72864;SDS011;61000;48.120;11.548;2023-05-07T02:38:35;9.90;;;6.78;;
72864;SDS011;61000;48.120;11.548;2023-05-07T02:41:03;10.35;;;6.95;;
72864;SDS011;61000;48.120;11.548;2023-05-07T02:43:30;12.50;;;7.90;;
72864;SDS011;61000;48.120;11.548;2023-05-07T02:46:00;7.40;;;6.50;;
72864;SDS011;61000;48.120;11.548;2023-05-07T02:48:28;10.55;;;6.90;;
72864;SDS011;61000;48.120;11.548;2023-05-07T02:50:56;8.25;;;6.72;;
72864;SDS011;61000;48.120;11.548;2023-05-07T02:53:23;10.32;;;6.75;;
72864;SDS011;61000;48.120;11.548;2023-05-07T02:55:51;7.57;;;6.70;;
72864;SDS011;61000;48.120;11.548;2023-05-07T02:58:19;8.27;;;7.22;;
72864;SDS011;61000;48.120;11.548;2023-05-07T03:00:46;9.73;;;7.13;;
72864;SDS011;61000;48.120;11.548;2023-05-07T03:03:33;7.93;;;6.57;;
72864;SDS011;61000;48.120;11.548;2023-05-07T03:06:02;8.45;;;7.63;;
72864;SDS011;61000;48.120;11.548;2023-05-07T03:08:29;7.47;;;6.70;;
72864;SDS011;61000;48.120;11.548;2023-05-07T03:10:56;6.80;;;6.10;;
72864;SDS011;61000;48.120;11.548;2023-05-07T03:13:23;8.27;;;6.70;;
72864;SDS011;61000;48.120;11.548;2023-05-07T03:15:51;7.90;;;6.35;;
72864;SDS011;61000;48.120;11.548;2023-05-07T03:18:18;8.00;;;6.30;;
72864;SDS011;61000;48.120;11.548;2023-05-07T03:20:45;9.02;;;6.53;;
72864;SDS011;61000;48.120;11.548;2023-05-07T03:23:13;7.70;;;6.40;;
72864;SDS011;61000;48.120;11.548;2023-05-07T03:25:40;9.90;;;6.72;;
72864;SDS011;61000;48.120;11.548;2023-05-07T03:28:07;6.90;;;6.20;;
72864;SDS011;61000;48.120;11.548;2023-05-07T03:30:43;7.97;;;6.10;;
72864;SDS011;61000;48.120;11.548;2023-05-07T03:33:09;8.05;;;6.65;;
72864;SDS011;61000;48.120;11.548;2023-05-07T03:35:37;6.65;;;5.95;;
72864;SDS011;61000;48.120;11.548;2023-05-07T03:38:04;8.30;;;6.22;;
72864;SDS011;61000;48.120;11.548;2023-05-07T03:40:35;9.10;;;6.43;;
72864;SDS011;61000;48.120;11.548;2023-05-07T03:43:03;7.60;;;6.63;;
72864;SDS011;61000;48.120;11.548;2023-05-07T03:45:32;7.47;;;6.55;;
72864;SDS011;61000;48.120;11.548;2023-05-07T03:48:08;7.88;;;6.07;;
72864;SDS011;61000;48.120;11.548;2023-05-07T03:50:34;8.88;;;6.18;;
72864;SDS011;61000;48.120;11.548;2023-05-07T03:53:02;9.63;;;6.55;;
72864;SDS011;61000;48.120;11.548;2023-05-07T03:55:30;10.25;;;6.60;;
72864;SDS011;61000;48.120;11.548;2023-05-07T03:58:00;10.68;;;6.50;;
72864;SDS011;61000;48.120;11.548;2023-05-07T04:00:28;7.55;;;6.47;;
72864;SDS011;61000;48.120;11.548;2023-05-07T04:02:58;7.85;;;6.40;;
72864;SDS011;61000;48.120;11.548;2023-05-07T04:05:29;7.55;;;6.00;;
72864;SDS011;61000;48.120;11.548;2023-05-07T04:08:00;7.40;;;5.72;;
72864;SDS011;61000;48.120;11.548;2023-05-07T04:10:35;6.75;;;5.70;;
72864;SDS011;61000;48.120;11.548;2023-05-07T04:13:07;7.95;;;5.78;;
72864;SDS011;61000;48.120;11.548;2023-05-07T04:15:35;12.57;;;6.13;;
72864;SDS011;61000;48.120;11.548;2023-05-07T04:18:04;7.03;;;6.07;;
72864;SDS011;61000;48.120;11.548;2023-05-07T04:20:33;8.63;;;6.38;;
72864;SDS011;61000;48.120;11.548;2023-05-07T04:23:03;6.45;;;5.90;;
72864;SDS011;61000;48.120;11.548;2023-05-07T04:25:31;6.78;;;6.13;;
72864;SDS011;61000;48.120;11.548;2023-05-07T04:28:09;6.80;;;6.07;;
72864;SDS011;61000;48.120;11.548;2023-05-07T04:30:36;6.10;;;5.35;;
72864;SDS011;61000;48.120;11.548;2023-05-07T04:33:05;7.10;;;6.43;;
72864;SDS011;61000;48.120;11.548;2023-05-07T04:35:33;7.57;;;5.82;;
72864;SDS011;61000;48.120;11.548;2023-05-07T04:38:02;7.38;;;5.90;;
72864;SDS011;61000;48.120;11.548;2023-05-07T04:40:29;8.05;;;6.38;;
72864;SDS011;61000;48.120;11.548;2023-05-07T04:42:56;6.88;;;6.25;;
72864;SDS011;61000;48.120;11.548;2023-05-07T04:45:25;10.73;;;6.53;;
72864;SDS011;61000;48.120;11.548;2023-05-07T04:47:53;6.22;;;5.20;;
72864;SDS011;61000;48.120;11.548;2023-05-07T04:50:20;6.90;;;5.95;;
72864;SDS011;61000;48.120;11.548;2023-05-07T04:52:51;6.60;;;5.93;;
72864;SDS011;61000;48.120;11.548;2023-05-07T04:55:19;6.55;;;5.72;;
72864;SDS011;61000;48.120;11.548;2023-05-07T04:57:46;6.03;;;5.43;;
72864;SDS011;61000;48.120;11.548;2023-05-07T05:00:15;9.63;;;6.15;;
72864;SDS011;61000;48.120;11.548;2023-05-07T05:02:50;7.95;;;6.32;;
72864;SDS011;61000;48.120;11.548;2023-05-07T05:05:19;6.35;;;5.53;;
72864;SDS011;61000;48.120;11.548;2023-05-07T05:07:49;7.68;;;6.22;;
72864;SDS011;61000;48.120;11.548;2023-05-07T05:10:16;10.50;;;5.82;;
72864;SDS011;61000;48.120;11.548;2023-05-07T05:12:44;8.70;;;6.30;;
72864;SDS011;61000;48.120;11.548;2023-05-07T05:15:11;7.25;;;6.00;;
72864;SDS011;61000;48.120;11.548;2023-05-07T05:17:38;6.53;;;5.38;;
72864;SDS011;61000;48.120;11.548;2023-05-07T05:20:08;6.93;;;5.88;;
72864;SDS011;61000;48.120;11.548;2023-05-07T05:22:37;7.38;;;6.55;;
72864;SDS011;61000;48.120;11.548;2023-05-07T05:25:04;6.93;;;6.20;;
72864;SDS011;61000;48.120;11.548;2023-05-07T05:27:31;6.22;;;5.63;;
72864;SDS011;61000;48.120;11.548;2023-05-07T05:29:59;10.10;;;6.05;;
72864;SDS011;61000;48.120;11.548;2023-05-07T05:32:27;6.07;;;5.50;;
72864;SDS011;61000;48.120;11.548;2023-05-07T05:34:55;6.90;;;5.53;;
72864;SDS011;61000;48.120;11.548;2023-05-07T05:37:24;5.55;;;4.97;;
72864;SDS011;61000;48.120;11.548;2023-05-07T05:39:52;6.43;;;5.82;;
72864;SDS011;61000;48.120;11.548;2023-05-07T05:42:20;7.30;;;5.85;;
72864;SDS011;61000;48.120;11.548;2023-05-07T05:44:46;5.78;;;5.18;;
72864;SDS011;61000;48.120;11.548;2023-05-07T05:47:13;8.95;;;5.65;;
72864;SDS011;61000;48.120;11.548;2023-05-07T05:49:41;6.97;;;5.75;;
72864;SDS011;61000;48.120;11.548;2023-05-07T05:52:11;5.32;;;4.82;;
72864;SDS011;61000;48.120;11.548;2023-05-07T05:54:40;6.50;;;5.80;;
72864;SDS011;61000;48.120;11.548;2023-05-07T05:57:07;6.13;;;5.53;;
72864;SDS011;61000;48.120;11.548;2023-05-07T05:59:34;6.80;;;5.97;;
72864;SDS011;61000;48.120;11.548;2023-05-07T06:02:01;6.05;;;5.45;;
72864;SDS011;61000;48.120;11.548;2023-05-07T06:04:29;6.40;;;5.32;;
72864;SDS011;61000;48.120;11.548;2023-05-07T06:06:56;5.00;;;4.60;;
72864;SDS011;61000;48.120;11.548;2023-05-07T06:09:24;7.85;;;5.88;;
72864;SDS011;61000;48.120;11.548;2023-05-07T06:11:53;5.65;;;5.13;;
72864;SDS011;61000;48.120;11.548;2023-05-07T06:14:19;8.52;;;6.05;;
72864;SDS011;61000;48.120;11.548;2023-05-07T06:16:47;7.38;;;5.90;;
72864;SDS011;61000;48.120;11.548;2023-05-07T06:19:14;6.68;;;5.80;;
72864;SDS011;61000;48.120;11.548;2023-05-07T06:21:43;6.25;;;5.65;;
72864;SDS011;61000;48.120;11.548;2023-05-07T06:24:10;7.38;;;5.50;;
72864;SDS011;61000;48.120;11.548;2023-05-07T06:26:38;10.05;;;5.88;;
72864;SDS011;61000;48.120;11.548;2023-05-07T06:29:07;9.13;;;5.78;;
72864;SDS011;61000;48.120;11.548;2023-05-07T06:31:33;5.60;;;4.97;;
72864;SDS011;61000;48.120;11.548;2023-05-07T06:34:04;6.10;;;5.00;;
72864;SDS011;61000;48.120;11.548;2023-05-07T06:36:34;5.63;;;5.10;;
72864;SDS011;61000;48.120;11.548;2023-05-07T06:39:10;5.90;;;5.40;;
72864;SDS011;61000;48.120;11.548;2023-05-07T06:41:37;7.82;;;4.90;;
72864;SDS011;61000;48.120;11.548;2023-05-07T06:44:09;5.43;;;4.20;;
72864;SDS011;61000;48.120;11.548;2023-05-07T06:46:43;5.68;;;4.30;;
72864;SDS011;61000;48.120;11.548;2023-05-07T06:49:11;5.10;;;4.10;;
72864;SDS011;61000;48.120;11.548;2023-05-07T06:51:39;5.18;;;4.57;;
72864;SDS011;61000;48.120;11.548;2023-05-07T06:54:06;5.03;;;4.60;;
72864;SDS011;61000;48.120;11.548;2023-05-07T06:56:35;5.70;;;4.22;;
72864;SDS011;61000;48.120;11.548;2023-05-07T06:59:03;4.78;;;4.03;;
72864;SDS011;61000;48.120;11.548;2023-05-07T07:01:36;4.63;;;3.97;;
72864;SDS011;61000;48.120;11.548;2023-05-07T07:04:04;5.03;;;4.20;;
72864;SDS011;61000;48.120;11.548;2023-05-07T07:06:32;5.47;;;4.00;;
72864;SDS011;61000;48.120;11.548;2023-05-07T07:09:01;4.78;;;4.38;;
72864;SDS011;61000;48.120;11.548;2023-05-07T07:11:29;4.88;;;3.97;;
72864;SDS011;61000;48.120;11.548;2023-05-07T07:13:56;4.57;;;4.13;;
72864;SDS011;61000;48.120;11.548;2023-05-07T07:16:24;4.70;;;3.88;;
72864;SDS011;61000;48.120;11.548;2023-05-07T07:18:52;4.80;;;3.45;;
72864;SDS011;61000;48.120;11.548;2023-05-07T07:21:19;8.00;;;4.15;;
72864;SDS011;61000;48.120;11.548;2023-05-07T07:23:46;4.50;;;4.05;;
72864;SDS011;61000;48.120;11.548;2023-05-07T07:26:13;5.50;;;4.38;;
72864;SDS011;61000;48.120;11.548;2023-05-07T07:28:42;6.00;;;4.60;;
72864;SDS011;61000;48.120;11.548;2023-05-07T07:31:09;5.47;;;4.38;;
72864;SDS011;61000;48.120;11.548;2023-05-07T07:33:39;4.47;;;3.70;;
72864;SDS011;61000;48.120;11.548;2023-05-07T07:36:08;4.68;;;4.03;;
72864;SDS011;61000;48.120;11.548;2023-05-07T07:38:36;9.32;;;6.50;;
72864;SDS011;61000;48.120;11.548;2023-05-07T07:41:03;4.07;;;3.78;;
72864;SDS011;61000;48.120;11.548;2023-05-07T07:43:30;4.15;;;3.75;;
72864;SDS011;61000;48.120;11.548;2023-05-07T07:45:57;5.13;;;4.03;;
72864;SDS011;61000;48.120;11.548;2023-05-07T07:48:26;4.70;;;3.97;;
72864;SDS011;61000;48.120;11.548;2023-05-07T07:50:53;5.07;;;3.63;;
72864;SDS011;61000;48.120;11.548;2023-05-07T07:53:21;3.92;;;3.47;;
72864;SDS011;61000;48.120;11.548;2023-05-07T07:55:48;6.38;;;3.63;;
72864;SDS011;61000;48.120;11.548;2023-05-07T07:58:18;8.10;;;4.40;;
72864;SDS011;61000;48.120;11.548;2023-05-07T08:03:44;5.72;;;3.55;;
72864;SDS011;61000;48.120;11.548;2023-05-07T08:06:13;6.00;;;3.67;;
72864;SDS011;61000;48.120;11.548;2023-05-07T08:08:46;3.78;;;3.22;;
72864;SDS011;61000;48.120;11.548;2023-05-07T08:11:16;5.70;;;3.17;;
72864;SDS011;61000;48.120;11.548;2023-05-07T08:13:51;4.10;;;2.95;;
72864;SDS011;61000;48.120;11.548;2023-05-07T08:16:21;3.72;;;3.20;;
72864;SDS011;61000;48.120;11.548;2023-05-07T08:18:48;3.75;;;3.40;;
72864;SDS011;61000;48.120;11.548;2023-05-07T08:21:15;4.20;;;3.50;;
72864;SDS011;61000;48.120;11.548;2023-05-07T08:23:42;6.38;;;3.70;;
72864;SDS011;61000;48.120;11.548;2023-05-07T08:26:10;5.05;;;3.40;;
72864;SDS011;61000;48.120;11.548;2023-05-07T08:28:38;5.88;;;3.38;;
72864;SDS011;61000;48.120;11.548;2023-05-07T08:31:05;5.15;;;3.72;;
72864;SDS011;61000;48.120;11.548;2023-05-07T08:33:35;4.47;;;3.72;;
72864;SDS011;61000;48.120;11.548;2023-05-07T08:36:03;3.50;;;3.20;;
72864;SDS011;61000;48.120;11.548;2023-05-07T08:38:31;4.03;;;3.08;;
72864;SDS011;61000;48.120;11.548;2023-05-07T08:40:58;3.90;;;2.95;;
72864;SDS011;61000;48.120;11.548;2023-05-07T08:43:26;3.28;;;2.80;;
72864;SDS011;61000;48.120;11.548;2023-05-07T08:45:54;4.10;;;3.00;;
72864;SDS011;61000;48.120;11.548;2023-05-07T08:48:27;3.20;;;2.90;;
72864;SDS011;61000;48.120;11.548;2023-05-07T08:51:04;4.50;;;3.47;;
72864;SDS011;61000;48.120;11.548;2023-05-07T08:53:34;7.40;;;3.10;;
72864;SDS011;61000;48.120;11.548;2023-05-07T08:56:02;4.90;;;2.95;;
72864;SDS011;61000;48.120;11.548;2023-05-07T08:58:32;3.05;;;2.85;;
72864;SDS011;61000;48.120;11.548;2023-05-07T09:00:59;3.50;;;3.00;;
72864;SDS011;61000;48.120;11.548;2023-05-07T09:03:28;4.85;;;2.75;;
72864;SDS011;61000;48.120;11.548;2023-05-07T09:05:57;3.85;;;2.75;;
72864;SDS011;61000;48.120;11.548;2023-05-07T09:08:26;3.28;;;2.97;;
72864;SDS011;61000;48.120;11.548;2023-05-07T09:10:56;5.13;;;2.63;;
72864;SDS011;61000;48.120;11.548;2023-05-07T09:13:23;4.68;;;3.17;;
72864;SDS011;61000;48.120;11.548;2023-05-07T09:15:52;3.70;;;2.78;;
72864;SDS011;61000;48.120;11.548;2023-05-07T09:18:19;2.50;;;2.30;;
72864;SDS011;61000;48.120;11.548;2023-05-07T09:20:47;3.13;;;2.10;;
72864;SDS011;61000;48.120;11.548;2023-05-07T09:23:18;4.47;;;2.20;;
72864;SDS011;61000;48.120;11.548;2023-05-07T09:25:45;3.03;;;2.55;;
72864;SDS011;61000;48.120;11.548;2023-05-07T09:28:19;4.53;;;2.15;;
72864;SDS011;61000;48.120;11.548;2023-05-07T09:30:46;3.13;;;1.98;;
72864;SDS011;61000;48.120;11.548;2023-05-07T09:33:15;3.22;;;2.00;;
72864;SDS011;61000;48.120;11.548;2023-05-07T09:35:47;4.13;;;1.70;;
72864;SDS011;61000;48.120;11.548;2023-05-07T09:38:18;2.25;;;2.05;;
72864;SDS011;61000;48.120;11.548;2023-05-07T09:40:54;2.40;;;2.20;;
72864;SDS011;61000;48.120;11.548;2023-05-07T09:43:31;3.15;;;1.85;;
72864;SDS011;61000;48.120;11.548;2023-05-07T09:46:01;1.90;;;1.65;;
72864;SDS011;61000;48.120;11.548;2023-05-07T09:48:31;2.33;;;1.77;;
72864;SDS011;61000;48.120;11.548;2023-05-07T09:51:02;2.03;;;1.83;;
72864;SDS011;61000;48.120;11.548;2023-05-07T09:53:33;3.05;;;1.95;;
72864;SDS011;61000;48.120;11.548;2023-05-07T09:56:03;3.85;;;2.15;;
72864;SDS011;61000;48.120;11.548;2023-05-07T09:58:31;3.00;;;2.05;;
72864;SDS011;61000;48.120;11.548;2023-05-07T10:00:59;4.55;;;1.90;;
72864;SDS011;61000;48.120;11.548;2023-05-07T10:03:28;9.68;;;3.00;;
72864;SDS011;61000;48.120;11.548;2023-05-07T10:06:02;2.33;;;1.98;;
72864;SDS011;61000;48.120;11.548;2023-05-07T10:08:31;2.03;;;1.80;;
72864;SDS011;61000;48.120;11.548;2023-05-07T10:11:06;1.75;;;1.58;;
72864;SDS011;61000;48.120;11.548;2023-05-07T10:14:25;3.30;;;2.05;;
72864;SDS011;61000;48.120;11.548;2023-05-07T10:16:54;2.13;;;1.90;;
72864;SDS011;61000;48.120;11.548;2023-05-07T10:19:23;2.40;;;2.13;;
72864;SDS011;61000;48.120;11.548;2023-05-07T10:21:59;2.88;;;2.60;;
72864;SDS011;61000;48.120;11.548;2023-05-07T10:24:31;3.92;;;2.55;;
72864;SDS011;61000;48.120;11.548;2023-05-07T10:27:02;3.55;;;2.08;;
72864;SDS011;61000;48.120;11.548;2023-05-07T10:29:37;3.13;;;2.00;;
72864;SDS011;61000;48.120;11.548;2023-05-07T10:32:25;2.47;;;2.28;;
72864;SDS011;61000;48.120;11.548;2023-05-07T10:35:04;2.67;;;2.47;;
72864;SDS011;61000;48.120;11.548;2023-05-07T10:37:38;2.63;;;2.28;;
72864;SDS011;61000;48.120;11.548;2023-05-07T10:40:07;3.42;;;2.92;;
72864;SDS011;61000;48.120;11.548;2023-05-07T10:42:38;6.10;;;2.55;;
72864;SDS011;61000;48.120;11.548;2023-05-07T10:45:12;3.03;;;2.38;;
72864;SDS011;61000;48.120;11.548;2023-05-07T10:50:47;2.67;;;2.00;;
72864;SDS011;61000;48.120;11.548;2023-05-07T10:53:29;3.58;;;2.05;;
72864;SDS011;61000;48.120;11.548;2023-05-07T10:56:25;3.30;;;2.53;;
72864;SDS011;61000;48.120;11.548;2023-05-07T10:59:32;3.85;;;2.88;;
72864;SDS011;61000;48.120;11.548;2023-05-07T11:02:14;3.22;;;2.33;;
72864;SDS011;61000;48.120;11.548;2023-05-07T11:08:18;2.47;;;2.28;;
72864;SDS011;61000;48.120;11.548;2023-05-07T11:11:00;2.65;;;2.42;;
72864;SDS011;61000;48.120;11.548;2023-05-07T11:13:42;5.13;;;2.53;;
72864;SDS011;61000;48.120;11.548;2023-05-07T11:16:37;4.78;;;2.60;;
72864;SDS011;61000;48.120;11.548;2023-05-07T11:22:38;3.03;;;2.33;;
72864;SDS011;61000;48.120;11.548;2023-05-07T11:25:27;2.25;;;2.05;;
72864;SDS011;61000;48.120;11.548;2023-05-07T11:28:07;2.88;;;2.53;;
72864;SDS011;61000;48.120;11.548;2023-05-07T11:31:02;3.30;;;3.00;;
72864;SDS011;61000;48.120;11.548;2023-05-07T11:33:35;3.33;;;2.53;;
72864;SDS011;61000;48.120;11.548;2023-05-07T11:36:09;4.50;;;2.60;;
72864;SDS011;61000;48.120;11.548;2023-05-07T11:38:45;2.88;;;2.65;;
72864;SDS011;61000;48.120;11.548;2023-05-07T11:41:19;3.35;;;3.03;;
72864;SDS011;61000;48.120;11.548;2023-05-07T11:43:56;3.30;;;3.00;;
72864;SDS011;61000;48.120;11.548;2023-05-07T11:46:27;4.60;;;3.50;;
72864;SDS011;61000;48.120;11.548;2023-05-07T11:49:05;4.20;;;3.03;;
72864;SDS011;61000;48.120;11.548;2023-05-07T11:51:52;4.22;;;3.00;;
72864;SDS011;61000;48.120;11.548;2023-05-07T11:54:26;4.60;;;3.20;;
72864;SDS011;61000;48.120;11.548;2023-05-07T11:57:02;5.50;;;3.45;;
72864;SDS011;61000;48.120;11.548;2023-05-07T11:59:38;3.97;;;2.85;;
72864;SDS011;61000;48.120;11.548;2023-05-07T12:02:18;3.85;;;3.25;;
72864;SDS011;61000;48.120;11.548;2023-05-07T12:04:45;4.20;;;2.78;;
72864;SDS011;61000;48.120;11.548;2023-05-07T12:07:12;4.55;;;2.95;;
72864;SDS011;61000;48.120;11.548;2023-05-07T12:09:43;4.25;;;2.97;;
72864;SDS011;61000;48.120;11.548;2023-05-07T12:12:22;3.53;;;3.22;;
72864;SDS011;61000;48.120;11.548;2023-05-07T12:14:52;4.45;;;3.13;;
72864;SDS011;61000;48.120;11.548;2023-05-07T12:17:25;4.03;;;3.20;;
72864;SDS011;61000;48.120;11.548;2023-05-07T12:20:09;3.35;;;2.70;;
72864;SDS011;61000;48.120;11.548;2023-05-07T12:22:40;5.15;;;3.10;;
72864;SDS011;61000;48.120;11.548;2023-05-07T12:25:08;3.47;;;3.17;;
72864;SDS011;61000;48.120;11.548;2023-05-07T12:27:37;4.28;;;3.30;;
72864;SDS011;61000;48.120;11.548;2023-05-07T12:30:10;3.70;;;2.65;;
72864;SDS011;61000;48.120;11.548;2023-05-07T12:32:43;4.57;;;3.05;;
72864;SDS011;61000;48.120;11.548;2023-05-07T12:35:25;2.78;;;2.53;;
72864;SDS011;61000;48.120;11.548;2023-05-07T12:40:53;3.50;;;3.20;;
72864;SDS011;61000;48.120;11.548;2023-05-07T12:43:25;2.90;;;2.60;;
72864;SDS011;61000;48.120;11.548;2023-05-07T12:45:55;4.45;;;2.70;;
72864;SDS011;61000;48.120;11.548;2023-05-07T12:48:32;4.38;;;2.40;;
72864;SDS011;61000;48.120;11.548;2023-05-07T12:51:00;4.32;;;2.80;;
72864;SDS011;61000;48.120;11.548;2023-05-07T12:53:31;4.43;;;2.95;;
72864;SDS011;61000;48.120;11.548;2023-05-07T12:55:58;4.03;;;2.83;;
72864;SDS011;61000;48.120;11.548;2023-05-07T12:58:41;2.70;;;2.22;;
72864;SDS011;61000;48.120;11.548;2023-05-07T13:01:19;4.53;;;2.50;;
72864;SDS011;61000;48.120;11.548;2023-05-07T13:03:49;2.60;;;2.40;;
72864;SDS011;61000;48.120;11.548;2023-05-07T13:06:19;2.85;;;2.17;;
72864;SDS011;61000;48.120;11.548;2023-05-07T13:08:48;3.17;;;2.45;;
72864;SDS011;61000;48.120;11.548;2023-05-07T13:11:18;4.20;;;2.40;;
72864;SDS011;61000;48.120;11.548;2023-05-07T13:13:47;3.88;;;2.67;;
72864;SDS011;61000;48.120;11.548;2023-05-07T13:16:15;2.95;;;2.65;;
72864;SDS011;61000;48.120;11.548;2023-05-07T13:18:45;2.45;;;2.25;;
72864;SDS011;61000;48.120;11.548;2023-05-07T13:21:12;2.60;;;2.25;;
72864;SDS011;61000;48.120;11.548;2023-05-07T13:23:41;2.58;;;2.38;;
72864;SDS011;61000;48.120;11.548;2023-05-07T13:26:11;3.92;;;2.45;;
72864;SDS011;61000;48.120;11.548;2023-05-07T13:28:38;3.22;;;2.47;;
72864;SDS011;61000;48.120;11.548;2023-05-07T13:31:06;3.75;;;2.17;;
72864;SDS011;61000;48.120;11.548;2023-05-07T13:33:33;3.00;;;1.85;;
72864;SDS011;61000;48.120;11.548;2023-05-07T13:36:00;3.80;;;2.40;;
72864;SDS011;61000;48.120;11.548;2023-05-07T13:38:29;2.00;;;1.90;;
72864;SDS011;61000;48.120;11.548;2023-05-07T13:40:56;1.80;;;1.70;;
72864;SDS011;61000;48.120;11.548;2023-05-07T13:43:24;2.05;;;1.75;;
72864;SDS011;61000;48.120;11.548;2023-05-07T13:45:51;3.42;;;3.03;;
72864;SDS011;61000;48.120;11.548;2023-05-07T13:48:19;3.08;;;2.65;;
72864;SDS011;61000;48.120;11.548;2023-05-07T13:50:46;2.22;;;1.90;;
72864;SDS011;61000;48.120;11.548;2023-05-07T13:53:13;2.70;;;2.30;;
72864;SDS011;61000;48.120;11.548;2023-05-07T13:55:42;2.83;;;2.33;;
72864;SDS011;61000;48.120;11.548;2023-05-07T13:58:09;1.83;;;1.73;;
72864;SDS011;61000;48.120;11.548;2023-05-07T14:00:36;4.32;;;2.97;;
72864;SDS011;61000;48.120;11.548;2023-05-07T14:03:04;3.70;;;2.08;;
72864;SDS011;61000;48.120;11.548;2023-05-07T14:05:32;2.95;;;2.42;;
72864;SDS011;61000;48.120;11.548;2023-05-07T14:08:00;3.05;;;1.75;;
72864;SDS011;61000;48.120;11.548;2023-05-07T14:10:27;3.33;;;2.60;;
72864;SDS011;61000;48.120;11.548;2023-05-07T14:12:55;2.70;;;2.30;;
72864;SDS011;61000;48.120;11.548;2023-05-07T14:15:22;4.25;;;2.03;;
72864;SDS011;61000;48.120;11.548;2023-05-07T14:17:51;3.08;;;2.53;;
72864;SDS011;61000;48.120;11.548;2023-05-07T14:20:19;3.00;;;2.17;;
72864;SDS011;61000;48.120;11.548;2023-05-07T14:22:48;2.22;;;1.98;;
72864;SDS011;61000;48.120;11.548;2023-05-07T14:25:15;2.47;;;2.28;;
72864;SDS011;61000;48.120;11.548;2023-05-07T14:27:47;6.60;;;2.75;;
72864;SDS011;61000;48.120;11.548;2023-05-07T14:30:14;3.72;;;2.38;;
72864;SDS011;61000;48.120;11.548;2023-05-07T14:32:42;3.47;;;2.20;;
72864;SDS011;61000;48.120;11.548;2023-05-07T14:35:09;3.47;;;2.10;;
72864;SDS011;61000;48.120;11.548;2023-05-07T14:37:36;2.60;;;2.40;;
72864;SDS011;61000;48.120;11.548;2023-05-07T14:40:05;4.75;;;2.67;;
72864;SDS011;61000;48.120;11.548;2023-05-07T14:42:33;4.38;;;2.60;;
72864;SDS011;61000;48.120;11.548;2023-05-07T14:45:00;2.33;;;2.03;;
72864;SDS011;61000;48.120;11.548;2023-05-07T14:47:27;3.55;;;2.88;;
72864;SDS011;61000;48.120;11.548;2023-05-07T14:49:54;3.70;;;3.15;;
72864;SDS011;61000;48.120;11.548;2023-05-07T14:52:22;4.03;;;2.60;;
72864;SDS011;61000;48.120;11.548;2023-05-07T14:54:49;4.05;;;3.10;;
72864;SDS011;61000;48.120;11.548;2023-05-07T14:57:17;4.90;;;2.90;;
72864;SDS011;61000;48.120;11.548;2023-05-07T14:59:45;4.63;;;3.08;;
72864;SDS011;61000;48.120;11.548;2023-05-07T15:02:12;3.65;;;3.10;;
72864;SDS011;61000;48.120;11.548;2023-05-07T15:04:39;2.90;;;2.63;;